Time;durP1;ratioP1;P1;durP2;ratioP2;P2;SDS_P1;SDS_P2;PMS_P1;PMS_P2;Temp;Humidity;BMP_temperature;BMP_pressure;BME280_temperature;BME280_humidity;BME280_pressure;Samples;Min_cycle;Max_cycle;Signal;HPM_P1;HPM_P2
2023/04/28 00:00:56;;;;;;;27.30;25.10;;;9.60;99.90;;;;;;6096960;23;20491;-83
2023/04/28 00:03:23;;;;;;;23.93;21.70;;;9.60;99.90;;;;;;6097329;23;20458;-84
2023/04/28 00:05:53;;;;;;;25.97;23.77;;;9.60;99.90;;;;;;6097530;23;20415;-85
2023/04/28 00:08:21;;;;;;;33.43;30.17;;;9.70;99.90;;;;;;6097116;23;20495;-83
2023/04/28 00:10:48;;;;;;;32.87;30.30;;;9.70;99.90;;;;;;6106809;23;20407;-83
2023/04/28 00:13:15;;;;;;;22.67;20.57;;;9.70;99.90;;;;;;6096646;23;20435;-84
2023/04/28 00:15:42;;;;;;;21.97;19.73;;;9.60;99.90;;;;;;6097305;23;20494;-84
2023/04/28 00:18:10;;;;;;;19.00;15.70;;;9.60;99.90;;;;;;6097044;23;20423;-84
2023/04/28 00:20:37;;;;;;;36.53;33.47;;;9.60;99.90;;;;;;6095490;23;20436;-84
2023/04/28 00:23:05;;;;;;;107.03;101.63;;;9.60;99.90;;;;;;6097158;23;20507;-84
2023/04/28 00:25:33;;;;;;;81.03;76.60;;;9.60;99.90;;;;;;6097232;23;20420;-84
2023/04/28 00:28:00;;;;;;;94.33;89.87;;;9.60;99.90;;;;;;6096910;23;20416;-83
2023/04/28 00:30:27;;;;;;;26.70;24.73;;;9.60;99.90;;;;;;6119675;23;20503;-83
2023/04/28 00:32:54;;;;;;;23.90;15.00;;;9.60;99.90;;;;;;6096616;23;20495;-83
2023/04/28 00:35:22;;;;;;;19.50;11.30;;;9.60;99.90;;;;;;6096792;23;20487;-83
2023/04/28 00:37:49;;;;;;;13.80;9.00;;;9.60;99.90;;;;;;6095372;23;21096;-84
2023/04/28 00:40:17;;;;;;;16.43;8.40;;;9.60;99.90;;;;;;6096968;23;20499;-84
2023/04/28 00:42:44;;;;;;;15.40;8.10;;;9.50;99.90;;;;;;6097048;23;20806;-84
2023/04/28 00:45:11;;;;;;;11.03;7.27;;;9.60;99.90;;;;;;6096989;23;20934;-84
2023/04/28 00:47:38;;;;;;;18.60;8.60;;;9.60;99.90;;;;;;6096719;23;20422;-84
2023/04/28 00:50:06;;;;;;;21.70;12.97;;;9.60;99.90;;;;;;6096645;23;20979;-84
2023/04/28 00:52:33;;;;;;;16.13;9.80;;;9.60;99.90;;;;;;6096513;23;20963;-84
2023/04/28 00:55:00;;;;;;;47.43;44.43;;;9.60;99.90;;;;;;6096729;23;20486;-84
2023/04/28 00:57:31;;;;;;;229.53;221.53;;;9.50;99.90;;;;;;6096634;23;20416;-84
2023/04/28 00:59:59;;;;;;;303.70;292.47;;;9.50;99.90;;;;;;6096510;23;20569;-84
2023/04/28 01:02:29;;;;;;;507.97;486.43;;;9.50;99.90;;;;;;6096269;23;20419;-84
2023/04/28 01:04:58;;;;;;;474.13;454.07;;;9.50;99.90;;;;;;6096721;23;20435;-84
2023/04/28 01:07:25;;;;;;;548.33;523.23;;;9.50;99.90;;;;;;6096114;23;20416;-84
2023/04/28 01:09:52;;;;;;;614.97;585.20;;;9.50;99.90;;;;;;6094893;23;20495;-84
2023/04/28 01:12:19;;;;;;;670.17;634.77;;;9.40;99.90;;;;;;6096254;23;20411;-85
2023/04/28 01:14:48;;;;;;;655.83;622.60;;;9.40;99.90;;;;;;6096551;23;20814;-84
2023/04/28 01:17:15;;;;;;;690.70;652.53;;;9.40;99.90;;;;;;6096390;23;20416;-84
2023/04/28 01:19:42;;;;;;;694.87;656.27;;;9.50;99.90;;;;;;6105948;23;20416;-84
2023/04/28 01:22:12;;;;;;;621.00;588.60;;;9.40;99.90;;;;;;6096457;23;20439;-83
2023/04/28 01:24:41;;;;;;;620.57;588.10;;;9.40;99.90;;;;;;6096278;23;21014;-84
2023/04/28 01:27:08;;;;;;;639.77;604.47;;;9.40;99.90;;;;;;6096401;23;20416;-84
2023/04/28 01:29:35;;;;;;;626.03;593.90;;;9.40;99.90;;;;;;6096679;23;20449;-84
2023/04/28 01:32:02;;;;;;;617.03;585.70;;;9.40;99.90;;;;;;6096287;23;20430;-84
2023/04/28 01:34:29;;;;;;;681.80;643.67;;;9.50;99.90;;;;;;6095814;23;20464;-84
2023/04/28 01:36:56;;;;;;;711.77;668.43;;;9.50;99.90;;;;;;6095953;23;20495;-84
2023/04/28 01:39:23;;;;;;;681.83;644.47;;;9.50;99.90;;;;;;6096338;23;20717;-84
2023/04/28 01:41:52;;;;;;;737.23;690.57;;;9.50;99.90;;;;;;6096047;23;20440;-84
2023/04/28 01:44:19;;;;;;;745.97;695.37;;;9.40;99.90;;;;;;6105888;23;20428;-84
2023/04/28 01:46:48;;;;;;;753.00;702.23;;;9.50;99.90;;;;;;6096115;23;21093;-84
2023/04/28 01:49:15;;;;;;;754.37;705.70;;;9.40;99.90;;;;;;6095900;23;20757;-84
2023/04/28 01:51:42;;;;;;;750.87;701.73;;;9.40;99.90;;;;;;6105880;23;20412;-85
2023/04/28 01:54:09;;;;;;;717.53;676.03;;;9.40;99.90;;;;;;6096228;23;20490;-84
2023/04/28 01:56:36;;;;;;;735.23;689.53;;;9.40;99.90;;;;;;6096042;23;20447;-85
2023/04/28 01:59:07;;;;;;;738.57;692.00;;;9.40;99.90;;;;;;6096133;23;20428;-85
2023/04/28 02:01:34;;;;;;;717.17;674.30;;;9.30;99.90;;;;;;6096026;23;20431;-85
2023/04/28 02:04:01;;;;;;;733.30;688.10;;;9.40;99.90;;;;;;6096085;23;20435;-85
2023/04/28 02:06:31;;;;;;;766.27;715.17;;;9.40;99.90;;;;;;6096254;23;20427;-85
2023/04/28 02:09:00;;;;;;;780.90;727.70;;;9.40;99.90;;;;;;6095582;23;20415;-85
2023/04/28 02:11:28;;;;;;;781.87;728.33;;;9.40;99.90;;;;;;6118810;23;20420;-84
2023/04/28 02:13:55;;;;;;;786.17;733.03;;;9.40;99.90;;;;;;6095597;23;20474;-85
2023/04/28 02:16:24;;;;;;;787.37;727.90;;;9.50;99.90;;;;;;6096283;23;20423;-84
2023/04/28 02:18:51;;;;;;;796.17;739.20;;;9.40;99.90;;;;;;6118452;23;20447;-84
2023/04/28 02:21:18;;;;;;;793.90;736.87;;;9.50;99.90;;;;;;6095805;23;20514;-84
2023/04/28 02:23:46;;;;;;;778.67;724.53;;;9.50;99.90;;;;;;6118987;23;20439;-84
2023/04/28 02:26:14;;;;;;;771.80;718.17;;;9.50;99.90;;;;;;6096029;23;20419;-85
2023/04/28 02:28:42;;;;;;;789.37;734.80;;;9.50;99.90;;;;;;6118569;23;20423;-85
2023/04/28 02:31:12;;;;;;;769.77;714.10;;;9.50;99.90;;;;;;6096414;23;20479;-85
2023/04/28 02:33:43;;;;;;;762.50;708.33;;;9.50;99.90;;;;;;6095965;23;20445;-83
2023/04/28 02:36:11;;;;;;;751.83;701.17;;;9.50;99.90;;;;;;6095931;23;20999;-84
2023/04/28 02:38:40;;;;;;;742.10;693.97;;;9.60;99.90;;;;;;6095621;23;21104;-84
2023/04/28 02:41:11;;;;;;;719.00;674.60;;;9.60;99.90;;;;;;6095440;23;20960;-85
2023/04/28 02:43:38;;;;;;;694.60;652.93;;;9.60;99.90;;;;;;6095940;23;20515;-84
2023/04/28 02:46:06;;;;;;;693.87;653.87;;;9.60;99.90;;;;;;6095825;23;20931;-84
2023/04/28 02:48:35;;;;;;;714.23;672.00;;;9.60;99.90;;;;;;6095293;23;20947;-83
2023/04/28 02:51:04;;;;;;;729.00;682.73;;;9.60;99.90;;;;;;6095582;23;20416;-84
2023/04/28 02:53:31;;;;;;;744.70;696.70;;;9.60;99.90;;;;;;6095364;23;20436;-84
2023/04/28 02:55:58;;;;;;;740.27;690.40;;;9.50;99.90;;;;;;6096103;23;20544;-83
2023/04/28 02:58:25;;;;;;;757.07;703.50;;;9.60;99.90;;;;;;6095818;23;20415;-83
2023/04/28 03:00:52;;;;;;;749.97;697.70;;;9.50;99.90;;;;;;6095282;23;20435;-83
2023/04/28 03:03:19;;;;;;;751.77;699.20;;;9.60;99.90;;;;;;6096067;23;20830;-83
2023/04/28 03:05:46;;;;;;;745.50;692.50;;;9.60;99.90;;;;;;6095871;23;20451;-84
2023/04/28 03:08:15;;;;;;;749.30;695.73;;;9.60;99.90;;;;;;6095608;23;20443;-83
2023/04/28 03:10:42;;;;;;;746.87;694.03;;;9.60;99.90;;;;;;6095970;23;20499;-83
2023/04/28 03:13:09;;;;;;;734.33;681.93;;;9.60;99.90;;;;;;6094179;23;20495;-83
2023/04/28 03:15:36;;;;;;;736.30;685.40;;;9.60;99.90;;;;;;6096027;23;20416;-83
2023/04/28 03:18:03;;;;;;;730.17;679.30;;;9.60;99.90;;;;;;6095785;23;20451;-83
2023/04/28 03:20:30;;;;;;;731.57;682.27;;;9.60;99.90;;;;;;6095923;23;20442;-84
2023/04/28 03:22:58;;;;;;;721.80;673.77;;;9.60;99.90;;;;;;6095306;23;21162;-83
2023/04/28 03:25:27;;;;;;;727.27;679.20;;;9.70;99.90;;;;;;6105257;23;20413;-83
2023/04/28 03:27:54;;;;;;;731.33;682.00;;;9.60;99.90;;;;;;6095016;23;20443;-83
2023/04/28 03:30:21;;;;;;;738.27;688.10;;;9.60;99.90;;;;;;6094007;23;20764;-83
2023/04/28 03:32:48;;;;;;;756.80;707.20;;;9.60;99.90;;;;;;6093859;23;20412;-84
2023/04/28 03:35:16;;;;;;;757.77;705.77;;;9.60;99.90;;;;;;6095464;23;20448;-84
2023/04/28 03:37:43;;;;;;;756.37;704.67;;;9.60;99.90;;;;;;6095035;23;20503;-83
2023/04/28 03:40:11;;;;;;;752.93;701.07;;;9.60;99.90;;;;;;6093825;23;20430;-84
2023/04/28 03:42:39;;;;;;;746.63;696.00;;;9.50;99.90;;;;;;6095356;23;20436;-84
2023/04/28 03:45:07;;;;;;;758.50;705.50;;;9.60;99.90;;;;;;6095588;23;20797;-84
2023/04/28 03:47:34;;;;;;;762.17;707.97;;;9.50;99.90;;;;;;6095609;23;20477;-83
2023/04/28 03:50:01;;;;;;;776.97;720.33;;;9.50;99.90;;;;;;6095442;23;20447;-83
2023/04/28 03:52:28;;;;;;;766.73;709.43;;;9.40;99.90;;;;;;6095911;23;20494;-84
2023/04/28 03:54:55;;;;;;;768.37;710.70;;;9.40;99.90;;;;;;6095507;23;20435;-84
2023/04/28 03:57:22;;;;;;;774.50;715.63;;;9.40;99.90;;;;;;6095757;23;20422;-84
2023/04/28 03:59:51;;;;;;;771.17;712.80;;;9.40;99.90;;;;;;6095685;23;20415;-83
2023/04/28 04:02:18;;;;;;;766.90;706.67;;;9.40;99.90;;;;;;6095680;23;20435;-83
2023/04/28 04:04:45;;;;;;;762.40;701.30;;;9.40;99.90;;;;;;6095525;23;20494;-84
2023/04/28 04:07:13;;;;;;;771.07;710.50;;;9.40;99.90;;;;;;6095393;23;20447;-84
2023/04/28 04:09:40;;;;;;;763.00;702.17;;;9.40;99.90;;;;;;6093692;23;20816;-84
2023/04/28 04:12:07;;;;;;;749.30;690.50;;;9.40;99.90;;;;;;6097280;23;20744;-83
2023/04/28 04:14:34;;;;;;;747.87;688.77;;;9.40;99.90;;;;;;6097177;23;20436;-84
2023/04/28 04:17:07;;;;;;;759.10;699.50;;;9.50;99.90;;;;;;6097170;23;20422;-83
2023/04/28 04:19:41;;;;;;;770.33;710.67;;;9.40;99.90;;;;;;6097115;23;21000;-83
2023/04/28 04:22:08;;;;;;;769.03;709.87;;;9.50;99.90;;;;;;6106826;23;20522;-84
2023/04/28 04:24:36;;;;;;;761.93;701.23;;;9.50;99.90;;;;;;6106724;23;20464;-83
2023/04/28 04:27:03;;;;;;;771.90;710.97;;;9.50;99.90;;;;;;6106660;23;20430;-84
2023/04/28 04:29:30;;;;;;;766.60;706.70;;;9.50;99.90;;;;;;6096947;23;20928;-83
2023/04/28 04:32:03;;;;;;;764.87;704.80;;;9.50;99.90;;;;;;6106683;23;20422;-83
2023/04/28 04:34:31;;;;;;;755.50;696.87;;;9.50;99.90;;;;;;6107333;23;20428;-84
2023/04/28 04:37:05;;;;;;;763.50;704.97;;;9.50;99.90;;;;;;6106534;23;20424;-83
2023/04/28 04:39:33;;;;;;;755.40;696.10;;;9.50;99.90;;;;;;6097126;23;20400;-82
2023/04/28 04:42:02;;;;;;;751.27;692.37;;;9.50;99.90;;;;;;6106218;23;20439;-84
2023/04/28 04:44:35;;;;;;;759.97;700.43;;;9.50;99.90;;;;;;6106409;23;20439;-84
2023/04/28 04:47:06;;;;;;;766.43;706.40;;;9.50;99.90;;;;;;6106442;23;20475;-83
2023/04/28 04:49:34;;;;;;;771.77;713.30;;;9.60;99.90;;;;;;6106350;23;20424;-83
2023/04/28 04:52:01;;;;;;;752.73;695.13;;;9.60;99.90;;;;;;6106709;23;20443;-84
2023/04/28 04:54:31;;;;;;;756.70;699.37;;;9.60;99.90;;;;;;6106068;23;20443;-85
2023/04/28 04:56:58;;;;;;;765.90;709.00;;;9.60;99.90;;;;;;6106463;23;20426;-84
2023/04/28 04:59:25;;;;;;;762.23;706.30;;;9.60;99.90;;;;;;6106371;23;20757;-84
2023/04/28 05:01:53;;;;;;;755.23;700.60;;;9.60;99.90;;;;;;6106456;23;20434;-84
2023/04/28 05:04:21;;;;;;;753.90;701.23;;;9.60;99.90;;;;;;6106792;23;20428;-84
2023/04/28 05:06:48;;;;;;;753.27;699.73;;;9.60;99.90;;;;;;6096409;23;20454;-84
2023/04/28 05:09:15;;;;;;;749.43;696.97;;;9.60;99.90;;;;;;6095937;23;20416;-84
2023/04/28 05:11:42;;;;;;;754.37;700.50;;;9.70;99.90;;;;;;6096324;23;20411;-83
2023/04/28 05:14:10;;;;;;;748.73;695.33;;;9.70;99.90;;;;;;6094849;23;20844;-84
2023/04/28 05:16:38;;;;;;;751.07;697.80;;;9.70;99.90;;;;;;6096463;23;20936;-83
2023/04/28 05:19:05;;;;;;;755.40;701.60;;;9.70;99.90;;;;;;6096086;23;20415;-84
2023/04/28 05:21:34;;;;;;;754.17;700.50;;;9.70;99.90;;;;;;6095983;23;20447;-83
2023/04/28 05:24:01;;;;;;;747.03;695.27;;;9.80;99.90;;;;;;6096271;23;20503;-84
2023/04/28 05:26:28;;;;;;;743.93;691.27;;;9.80;99.90;;;;;;6096646;23;20415;-84
2023/04/28 05:28:55;;;;;;;745.20;691.50;;;9.80;99.90;;;;;;6096387;23;20956;-84
2023/04/28 05:31:22;;;;;;;754.80;702.17;;;9.80;99.90;;;;;;6119991;23;20490;-83
2023/04/28 05:33:50;;;;;;;747.73;694.23;;;9.90;99.90;;;;;;6119555;23;20435;-83
2023/04/28 05:36:17;;;;;;;742.23;689.93;;;9.90;99.90;;;;;;6095816;23;20502;-83
2023/04/28 05:38:45;;;;;;;750.60;697.57;;;9.90;99.90;;;;;;6094601;23;20461;-85
2023/04/28 05:41:12;;;;;;;750.70;699.23;;;10.00;99.90;;;;;;6095111;23;20415;-83
2023/04/28 05:43:40;;;;;;;750.00;699.13;;;10.00;99.90;;;;;;6095307;23;20443;-83
2023/04/28 05:46:06;;;;;;;740.57;690.87;;;10.10;99.90;;;;;;6096198;23;20415;-83
2023/04/28 05:48:34;;;;;;;732.53;683.40;;;10.20;99.90;;;;;;6095171;23;20416;-83
2023/04/28 05:51:02;;;;;;;723.20;678.20;;;10.30;99.90;;;;;;6096212;23;20424;-83
2023/04/28 05:53:30;;;;;;;716.27;672.47;;;10.40;99.90;;;;;;6095911;23;20459;-83
2023/04/28 05:56:21;;;;;;;710.07;666.57;;;10.50;99.90;;;;;;6118369;23;20431;-84
2023/04/28 05:58:49;;;;;;;715.07;674.07;;;10.60;99.90;;;;;;6093248;23;20419;-83
2023/04/28 06:01:18;;;;;;;696.30;659.10;;;10.70;99.90;;;;;;6095566;23;20419;-83
2023/04/28 06:03:45;;;;;;;661.73;629.03;;;10.70;99.90;;;;;;6095450;23;20535;-83
2023/04/28 06:06:13;;;;;;;632.87;603.27;;;10.70;99.90;;;;;;6095811;23;20422;-83
2023/04/28 06:08:40;;;;;;;627.07;597.87;;;10.80;99.90;;;;;;6093906;23;20434;-83
2023/04/28 06:11:11;;;;;;;613.17;585.73;;;10.80;99.90;;;;;;6095904;23;20413;-83
2023/04/28 06:13:39;;;;;;;606.43;579.77;;;10.80;99.90;;;;;;6095745;23;21115;-83
2023/04/28 06:16:07;;;;;;;606.80;579.60;;;10.90;99.90;;;;;;6096115;23;20428;-82
2023/04/28 06:18:34;;;;;;;584.60;559.60;;;10.80;99.90;;;;;;6095299;23;20422;-82
2023/04/28 06:21:01;;;;;;;611.40;584.03;;;10.80;99.90;;;;;;6105829;23;20738;-82
2023/04/28 06:23:31;;;;;;;630.23;600.53;;;10.70;99.90;;;;;;6095840;23;20447;-83
2023/04/28 06:25:58;;;;;;;656.30;624.20;;;10.80;99.90;;;;;;6108264;23;20490;-83
2023/04/28 06:28:30;;;;;;;669.13;635.00;;;11.00;99.90;;;;;;6095575;23;20432;-83
2023/04/28 06:30:58;;;;;;;642.47;612.20;;;11.20;99.90;;;;;;6095623;23;20404;-83
2023/04/28 06:33:25;;;;;;;614.10;587.07;;;11.40;99.90;;;;;;6105279;23;20848;-83
2023/04/28 06:35:53;;;;;;;564.67;542.17;;;11.60;99.90;;;;;;6095724;23;20470;-83
2023/04/28 06:38:22;;;;;;;527.97;507.60;;;11.70;99.90;;;;;;6104182;23;20939;-82
2023/04/28 06:40:49;;;;;;;515.73;496.17;;;11.80;99.90;;;;;;6095132;23;20415;-83
2023/04/28 06:43:16;;;;;;;479.33;462.30;;;11.80;99.90;;;;;;6095340;23;20443;-82
2023/04/28 06:45:45;;;;;;;326.20;315.30;;;11.80;99.90;;;;;;6095629;23;20426;-89
2023/04/28 06:48:12;;;;;;;366.33;353.60;;;11.80;99.90;;;;;;6096578;23;20420;-83
2023/04/28 06:50:39;;;;;;;260.40;251.83;;;11.80;99.90;;;;;;6095154;23;20494;-83
2023/04/28 06:53:10;;;;;;;171.33;164.93;;;11.70;99.90;;;;;;6094317;23;20840;-83
2023/04/28 06:55:37;;;;;;;221.03;213.73;;;11.60;99.90;;;;;;6093429;23;20426;-83
2023/04/28 06:58:04;;;;;;;134.70;129.63;;;11.60;99.90;;;;;;6094117;23;20565;-82
2023/04/28 07:00:31;;;;;;;56.20;53.50;;;11.60;99.90;;;;;;6092735;23;20766;-82
2023/04/28 07:03:00;;;;;;;129.67;124.27;;;11.50;99.90;;;;;;6093377;23;20959;-82
2023/04/28 07:05:27;;;;;;;248.00;239.13;;;11.40;99.90;;;;;;6093512;23;20418;-83
2023/04/28 07:07:57;;;;;;;403.47;388.73;;;11.40;99.90;;;;;;6093927;23;20422;-82
2023/04/28 07:10:24;;;;;;;413.30;398.00;;;11.40;99.90;;;;;;6094261;23;20758;-82
2023/04/28 07:12:53;;;;;;;519.70;498.60;;;11.30;99.90;;;;;;6094554;23;20420;-83
2023/04/28 07:15:22;;;;;;;490.23;470.17;;;11.30;99.90;;;;;;6094467;23;20422;-83
2023/04/28 07:17:50;;;;;;;514.50;493.50;;;11.20;99.90;;;;;;6094598;23;20925;-82
2023/04/28 07:20:21;;;;;;;529.60;507.50;;;11.20;99.90;;;;;;6092685;23;20419;-83
2023/04/28 07:49:47;;;;;;;421.40;407.20;;;12.40;99.90;;;;;;6010934;23;20425;-85
2023/04/28 07:52:16;;;;;;;258.50;249.63;;;12.30;99.90;;;;;;6012170;23;20772;-85
2023/04/28 07:54:47;;;;;;;336.03;324.67;;;12.60;99.90;;;;;;6009565;23;20414;-85
2023/04/28 07:57:21;;;;;;;331.53;319.33;;;12.80;99.90;;;;;;6009074;23;20484;-85
2023/04/28 07:59:51;;;;;;;333.53;322.23;;;13.00;99.90;;;;;;6011150;23;20454;-85
2023/04/28 08:02:28;;;;;;;305.23;295.03;;;13.40;99.90;;;;;;6011074;23;20442;-85
2023/04/28 08:05:05;;;;;;;189.50;182.30;;;13.50;99.90;;;;;;6009222;23;20428;-85
2023/04/28 08:07:38;;;;;;;134.97;129.47;;;13.50;99.90;;;;;;6008713;23;20442;-85
2023/04/28 08:10:07;;;;;;;155.47;149.37;;;13.60;99.90;;;;;;6020782;23;20406;-86
2023/04/28 08:12:35;;;;;;;95.93;91.70;;;13.80;99.90;;;;;;6033413;23;20810;-85
2023/04/28 08:15:15;;;;;;;192.30;185.20;;;14.00;99.90;;;;;;6009573;23;20510;-86
2023/04/28 08:17:43;;;;;;;83.83;79.87;;;14.40;99.90;;;;;;6011047;23;20502;-86
2023/04/28 08:20:18;;;;;;;87.17;82.93;;;14.80;99.90;;;;;;6009617;23;20433;-86
2023/04/28 08:22:50;;;;;;;40.67;38.07;;;15.10;99.90;;;;;;6011167;23;20445;-86
2023/04/28 08:25:26;;;;;;;23.30;21.43;;;15.30;99.90;;;;;;6011513;23;20410;-85
2023/04/28 08:28:05;;;;;;;19.83;17.93;;;15.60;99.90;;;;;;6020211;23;20782;-86
2023/04/28 08:30:44;;;;;;;17.50;11.30;;;15.70;99.90;;;;;;6011072;23;20499;-86
2023/04/28 08:33:15;;;;;;;16.87;10.70;;;15.90;99.90;;;;;;6011140;23;20480;-87
2023/04/28 08:35:51;;;;;;;16.20;10.30;;;16.00;99.90;;;;;;6011338;23;20477;-86
2023/04/28 08:38:18;;;;;;;16.50;10.63;;;15.90;99.90;;;;;;6010297;23;20447;-86
2023/04/28 08:40:51;;;;;;;15.57;10.80;;;15.60;99.90;;;;;;6010800;23;20425;-86
2023/04/28 08:43:35;;;;;;;15.83;11.70;;;15.40;99.90;;;;;;6031136;23;20444;-86
2023/04/28 08:46:11;;;;;;;15.13;10.80;;;15.20;99.90;;;;;;6008671;23;20431;-85
2023/04/28 08:48:46;;;;;;;15.77;11.17;;;15.10;99.90;;;;;;6007866;23;20453;-86
2023/04/28 08:51:30;;;;;;;17.20;12.30;;;15.10;99.90;;;;;;6008923;23;20478;-86
2023/04/28 09:04:29;;;;;;;297.75;284.80;;;14.10;99.90;;;;;;6087515;23;20428;-83
2023/04/28 09:07:02;;;;;;;430.43;414.00;;;14.20;99.90;;;;;;6103911;23;20195;-83
2023/04/28 09:09:31;;;;;;;647.50;615.20;;;14.30;99.90;;;;;;6096203;23;20412;-83
2023/04/28 09:12:02;;;;;;;625.57;595.10;;;14.70;99.90;;;;;;6104348;23;20408;-83
2023/04/28 09:14:33;;;;;;;593.77;566.37;;;14.70;99.90;;;;;;6095382;23;20405;-84
2023/04/28 09:22:10;;;;;;;501.70;481.43;;;14.00;99.90;;;;;;6093989;23;20811;-83
2023/04/28 09:24:45;;;;;;;639.77;608.87;;;13.80;99.90;;;;;;6092422;23;20440;-84
2023/04/28 09:27:17;;;;;;;632.13;601.27;;;13.90;99.90;;;;;;6094544;23;20564;-84
2023/04/28 09:30:02;;;;;;;719.70;677.60;;;13.90;99.90;;;;;;6094679;23;20416;-84
2023/04/28 09:32:39;;;;;;;727.90;685.53;;;14.10;99.90;;;;;;6093153;23;20451;-84
2023/04/28 09:35:14;;;;;;;730.90;689.00;;;14.00;99.90;;;;;;6092985;23;20470;-84
2023/04/28 09:37:47;;;;;;;738.57;692.57;;;14.00;99.90;;;;;;6094538;23;20439;-84
2023/04/28 09:40:15;;;;;;;745.87;699.00;;;14.00;99.90;;;;;;6094730;23;20423;-84
2023/04/28 09:42:47;;;;;;;710.70;670.13;;;13.90;99.90;;;;;;6094924;23;20416;-84
2023/04/28 09:45:18;;;;;;;697.40;660.30;;;13.80;99.90;;;;;;6093360;23;20498;-84
2023/04/28 09:47:52;;;;;;;680.73;647.10;;;13.80;99.90;;;;;;6093046;23;20522;-85
2023/04/28 09:50:25;;;;;;;674.57;640.33;;;13.80;99.90;;;;;;6095561;23;20410;-85
2023/04/28 09:53:02;;;;;;;730.27;687.00;;;13.90;99.90;;;;;;6095490;23;20783;-85
2023/04/28 09:55:35;;;;;;;712.13;671.37;;;14.10;99.90;;;;;;6095148;23;20406;-83
2023/04/28 09:58:07;;;;;;;685.13;648.40;;;14.20;99.90;;;;;;6093793;23;20435;-82
2023/04/28 10:00:36;;;;;;;694.80;656.30;;;14.30;99.90;;;;;;6092346;23;20963;-82
2023/04/28 10:03:05;;;;;;;749.33;702.87;;;14.30;99.90;;;;;;6094182;23;20440;-82
2023/04/28 10:05:33;;;;;;;728.53;686.00;;;14.20;99.90;;;;;;6092784;23;20419;-82
2023/04/28 10:08:07;;;;;;;771.50;721.90;;;14.10;99.90;;;;;;6126491;23;20431;-82
2023/04/28 10:10:35;;;;;;;759.07;710.07;;;14.20;99.90;;;;;;6093943;23;20461;-81
2023/04/28 10:13:08;;;;;;;758.50;708.90;;;14.30;99.90;;;;;;6094675;23;20474;-82
2023/04/28 10:15:37;;;;;;;745.63;698.47;;;14.40;99.90;;;;;;6094313;23;20460;-82
2023/04/28 10:18:09;;;;;;;779.00;725.53;;;14.50;99.90;;;;;;6094462;23;20446;-82
2023/04/28 10:20:39;;;;;;;772.93;722.53;;;14.70;99.90;;;;;;6094622;23;20400;-82
2023/04/28 10:23:29;;;;;;;764.70;715.23;;;14.70;99.90;;;;;;6095507;23;20527;-82
2023/04/28 10:25:59;;;;;;;798.80;741.57;;;14.80;99.90;;;;;;6095718;23;20439;-82
2023/04/28 10:28:28;;;;;;;787.03;731.73;;;14.90;99.90;;;;;;6114752;23;20511;-82
2023/04/28 10:31:16;;;;;;;779.83;726.27;;;14.90;99.90;;;;;;6116360;23;20422;-82
2023/04/28 10:33:47;;;;;;;774.37;721.53;;;14.90;99.90;;;;;;6114181;23;20475;-82
2023/04/28 10:36:49;;;;;;;765.00;713.27;;;14.90;99.90;;;;;;6094118;23;20928;-82
2023/04/28 10:39:22;;;;;;;768.87;716.20;;;14.80;99.90;;;;;;6095901;23;20411;-82
2023/04/28 10:41:53;;;;;;;771.90;717.27;;;14.90;99.90;;;;;;6095619;23;20423;-82
2023/04/28 10:44:44;;;;;;;782.67;727.33;;;15.10;99.90;;;;;;6105178;23;20451;-83
2023/04/28 10:47:11;;;;;;;803.07;745.60;;;15.50;99.90;;;;;;6077304;23;20436;-84
2023/04/28 10:50:10;;;;;;;777.13;724.23;;;15.80;99.90;;;;;;6095994;23;20413;-84
2023/04/28 10:52:50;;;;;;;740.57;694.03;;;16.30;99.90;;;;;;6096103;23;20395;-83
2023/04/28 10:55:38;;;;;;;666.87;636.37;;;16.70;99.90;;;;;;6095919;23;20415;-83
2023/04/28 10:58:41;;;;;;;298.80;289.30;;;17.20;99.90;;;;;;6095512;23;20470;-83
2023/04/28 11:01:31;;;;;;;327.27;317.40;;;17.60;99.90;;;;;;6094747;23;20479;-83
2023/04/28 11:04:02;;;;;;;97.30;93.40;;;18.10;99.90;;;;;;6094654;23;20956;-83
2023/04/28 11:06:33;;;;;;;59.43;56.63;;;18.10;99.90;;;;;;6095348;23;20785;-84
2023/04/28 11:09:06;;;;;;;46.70;44.23;;;18.30;99.90;;;;;;6093738;23;20754;-84
2023/04/28 11:11:40;;;;;;;23.57;21.07;;;18.50;99.90;;;;;;6095093;23;20717;-84
2023/04/28 11:14:39;;;;;;;16.47;15.07;;;18.40;99.90;;;;;;6104341;23;20413;-83
2023/04/28 11:17:10;;;;;;;13.73;11.30;;;18.50;99.90;;;;;;6092965;23;20444;-84
2023/04/28 11:19:41;;;;;;;18.23;16.93;;;18.10;99.90;;;;;;6116852;23;20480;-84
2023/04/28 11:22:19;;;;;;;23.70;19.40;;;18.20;99.90;;;;;;6095725;23;20420;-84
2023/04/28 11:24:58;;;;;;;18.93;17.30;;;18.40;99.90;;;;;;6096964;23;20759;-84
2023/04/28 11:27:31;;;;;;;26.23;24.43;;;19.10;99.90;;;;;;6096753;23;20513;-84
2023/04/28 11:30:03;;;;;;;12.73;11.43;;;20.10;99.90;;;;;;6119617;23;20416;-84
2023/04/28 11:32:40;;;;;;;9.20;7.20;;;21.30;99.90;;;;;;6097179;23;20423;-85
2023/04/28 11:38:03;;;;;;;8.80;5.87;;;22.50;99.90;;;;;;6087730;23;20448;-86
2023/04/28 11:40:29;;;;;;;9.20;6.50;;;22.30;98.20;;;;;;6099417;23;20398;-85
2023/04/28 11:42:58;;;;;;;9.30;6.30;;;21.80;98.60;;;;;;6097772;23;20414;-85
2023/04/28 11:45:25;;;;;;;13.10;9.30;;;21.60;99.20;;;;;;6096427;23;20498;-85
2023/04/28 11:47:52;;;;;;;11.87;9.03;;;21.40;99.50;;;;;;6097143;23;20415;-85
2023/04/28 11:50:35;;;;;;;12.33;9.30;;;21.60;99.80;;;;;;6097293;23;20446;-86
2023/04/28 11:53:03;;;;;;;12.83;7.40;;;21.30;97.90;;;;;;6097011;23;20401;-85
2023/04/28 11:55:30;;;;;;;11.33;6.60;;;20.30;99.90;;;;;;6096878;23;20456;-85
2023/04/28 11:58:21;;;;;;;10.20;6.20;;;20.40;99.90;;;;;;6097151;23;20436;-85
2023/04/28 12:01:08;;;;;;;10.67;6.50;;;20.60;99.90;;;;;;6097356;23;20409;-85
2023/04/28 12:03:43;;;;;;;8.60;5.50;;;21.50;98.40;;;;;;6097503;23;20440;-85
2023/04/28 12:06:10;;;;;;;8.83;5.20;;;22.90;96.90;;;;;;6097688;23;20409;-85
2023/04/28 12:08:37;;;;;;;8.70;4.53;;;23.10;95.50;;;;;;6097334;23;20415;-85
2023/04/28 12:11:10;;;;;;;9.20;5.30;;;22.60;92.50;;;;;;6097153;23;20502;-85
2023/04/28 12:13:39;;;;;;;11.90;5.30;;;23.10;93.60;;;;;;6096830;23;20443;-85
2023/04/28 12:16:07;;;;;;;8.55;5.38;;;23.20;91.80;;;;;;6097250;23;20455;-85
2023/04/28 12:18:35;;;;;;;7.53;4.83;;;23.50;93.50;;;;;;6096993;23;20172;-85
2023/04/28 12:21:02;;;;;;;9.03;5.67;;;23.90;87.20;;;;;;6097490;23;20435;-86
2023/04/28 12:23:31;;;;;;;9.97;5.30;;;24.30;85.30;;;;;;6097073;23;20416;-86
2023/04/28 12:25:58;;;;;;;10.70;5.33;;;23.20;86.40;;;;;;6097756;23;20474;-85
2023/04/28 12:28:38;;;;;;;7.87;5.17;;;23.00;89.80;;;;;;6097704;23;20420;-88
2023/04/28 12:31:07;;;;;;;8.37;5.00;;;22.60;88.50;;;;;;6097694;23;20871;-88
2023/04/28 12:33:36;;;;;;;8.43;5.20;;;22.10;90.70;;;;;;6097309;23;20426;-88
2023/04/28 12:36:04;;;;;;;7.73;4.57;;;21.50;93.80;;;;;;6097672;23;20451;-88
2023/04/28 12:38:31;;;;;;;7.40;4.87;;;21.00;95.50;;;;;;6097423;23;20934;-87
2023/04/28 12:40:59;;;;;;;9.60;5.57;;;20.40;95.30;;;;;;6097284;23;20421;-87
2023/04/28 12:43:28;;;;;;;8.77;5.90;;;20.20;96.90;;;;;;6097561;23;20467;-92
2023/04/28 12:45:56;;;;;;;11.55;6.30;;;20.30;98.20;;;;;;6107515;23;20419;-88
2023/04/28 12:48:23;;;;;;;9.67;5.93;;;20.40;96.10;;;;;;6097147;23;20233;-85
2023/04/28 12:50:50;;;;;;;18.03;4.43;;;21.00;96.20;;;;;;6097070;23;20478;-86
2023/04/28 12:53:17;;;;;;;9.50;5.03;;;21.10;95.60;;;;;;6097105;23;20422;-86
2023/04/28 12:55:44;;;;;;;9.60;5.60;;;21.20;96.20;;;;;;6097571;23;20423;-85
2023/04/28 12:58:11;;;;;;;7.97;5.40;;;21.30;94.60;;;;;;6096955;23;20425;-85
2023/04/28 13:00:38;;;;;;;11.33;5.60;;;21.40;91.90;;;;;;6097545;23;20425;-85
2023/04/28 13:03:06;;;;;;;9.00;4.87;;;21.90;92.50;;;;;;6097459;23;20481;-85
2023/04/28 13:05:33;;;;;;;10.37;4.43;;;23.40;89.20;;;;;;6096845;23;20447;-86
2023/04/28 13:08:00;;;;;;;7.70;4.07;;;23.60;86.70;;;;;;6097156;23;20419;-86
2023/04/28 13:10:28;;;;;;;12.93;4.97;;;24.00;85.80;;;;;;6097409;23;20887;-86
2023/04/28 13:12:55;;;;;;;6.63;4.20;;;24.30;82.30;;;;;;6097226;23;20415;-85
2023/04/28 13:15:22;;;;;;;6.30;3.53;;;25.60;74.00;;;;;;6096384;23;20439;-85
2023/04/28 13:17:49;;;;;;;7.53;3.83;;;26.40;65.40;;;;;;6096522;23;20909;-86
2023/04/28 13:20:17;;;;;;;7.53;4.13;;;25.60;66.80;;;;;;6096331;23;20426;-85